Gwinner, ND

3:12 PM CDT on April 23, 2017 (GMT -0500)
Gwinner-melroe

Weather History for KGWR - November, 2013

Change the Weather History Date:

Sunday, November 17, 2013

  Actual Average (KP67) Record (KP67)
Temperature  
Mean Temperature 34 °F -  
Max Temperature 39 °F 22 °F 21 °F (1997)
Min Temperature 30 °F 9 °F 3 °F (1997)
Degree Days  
Heating Degree Days 30    
Moisture  
Dew Point 33 °F    
Average Humidity 93    
Maximum Humidity 100    
Minimum Humidity 75    
Precipitation  
Precipitation 0.00 in - - ()
Sea Level Pressure  
Sea Level Pressure 29.63 in    
Wind  
Wind Speed 11 mph (NW)    
Max Wind Speed 22 mph    
Max Gust Speed 28 mph    
Visibility 10 miles    
Events      
Averages and records for this station are not official NWS values.
T = Trace of Precipitation, MM = Missing Value Source: NWS Daily Summary

Daily Weather History Graph

Daily Weather History Graph

Search for Another Location

Airport or City:

Trip Planner

Search our weather history database for the weather conditions in past years. The results will help you decide how hot, cold, wet, or windy it might be!

Date:

Astronomy

Nov. 17, 2013 Rise Set
Actual Time 7:34 AM CST 4:55 PM CST
Civil Twilight 7:02 AM CST 5:28 PM CST
Nautical Twilight 6:25 AM CST 6:05 PM CST
Astronomical Twilight 5:49 AM CST 6:40 PM CST
Moon 5:13 PM CST (11/17) 7:29 AM CST (11/17)
Length of Visible Light 10h 26m
Length of Day
9h 21m
Full, 100% of the Moon is Illuminated
Nov 17
Full
Nov 25
Last Quarter
Dec 2
New
Dec 9
First Quarter
Dec 17
Full

Hourly Weather History & Observations

Time (CST) Temp. Windchill Dew Point Humidity Pressure Visibility Wind Dir Wind Speed Gust Speed Precip Events Conditions
12:15 AM 37.4 °F 31.4 °F 37.4 °F 100% 29.36 in 10.0 mi NW 8.1 mph - 0.00 in   Scattered Clouds
12:35 AM 37.4 °F 31.4 °F 37.4 °F 100% 29.36 in 10.0 mi WNW 8.1 mph - 0.00 in   Clear
12:55 AM 37.4 °F 31.4 °F 37.4 °F 100% 29.37 in 10.0 mi NW 8.1 mph - 0.00 in   Mostly Cloudy
1:15 AM 37.4 °F 30.8 °F 37.4 °F 100% 29.38 in 10.0 mi NW 9.2 mph - 0.00 in   Overcast
1:35 AM 37.4 °F 30.8 °F 37.4 °F 100% 29.37 in 10.0 mi NNW 9.2 mph - 0.00 in   Overcast
1:55 AM 37.4 °F 30.8 °F 37.4 °F 100% 29.37 in 10.0 mi NW 9.2 mph - 0.00 in   Mostly Cloudy
2:15 AM 39.2 °F 33.0 °F 39.2 °F 100% 29.36 in 10.0 mi NW 9.2 mph - 0.00 in   Mostly Cloudy
2:35 AM 39.2 °F 34.2 °F 39.2 °F 100% 29.38 in 10.0 mi NW 6.9 mph - 0.00 in   Overcast
2:55 AM 39.2 °F 35.9 °F 39.2 °F 100% 29.39 in 10.0 mi WNW 4.6 mph - 0.00 in   Overcast
3:15 AM 39.2 °F 34.2 °F 39.2 °F 100% 29.40 in 10.0 mi WNW 6.9 mph - 0.00 in   Mostly Cloudy
3:35 AM 37.4 °F 31.4 °F 37.4 °F 100% 29.41 in 10.0 mi West 8.1 mph - 0.00 in   Mostly Cloudy
3:55 AM 35.6 °F 29.2 °F 35.6 °F 100% 29.40 in 10.0 mi WNW 8.1 mph - 0.00 in   Mostly Cloudy
4:15 AM 35.6 °F 28.6 °F 35.6 °F 100% 29.39 in 10.0 mi WNW 9.2 mph - 0.00 in   Overcast
4:35 AM 35.6 °F 27.5 °F 35.6 °F 100% 29.40 in 10.0 mi NW 11.5 mph - 0.00 in   Mostly Cloudy
4:55 AM 35.6 °F 28.0 °F 35.6 °F 100% 29.41 in 10.0 mi NW 10.4 mph - 0.00 in   Overcast
5:15 AM 35.6 °F 29.2 °F 35.6 °F 100% 29.42 in 10.0 mi NW 8.1 mph - 0.00 in   Overcast
5:35 AM 35.6 °F 29.2 °F 35.6 °F 100% 29.42 in 10.0 mi WNW 8.1 mph - 0.00 in   Overcast
5:55 AM 35.6 °F 28.6 °F 35.6 °F 100% 29.42 in 10.0 mi NW 9.2 mph - 0.00 in   Overcast
6:15 AM 35.6 °F 29.2 °F 35.6 °F 100% 29.42 in 10.0 mi NW 8.1 mph - 0.00 in   Overcast
6:35 AM 35.6 °F 29.2 °F 35.6 °F 100% 29.43 in 10.0 mi WNW 8.1 mph - 0.00 in   Overcast
6:55 AM 35.6 °F 29.2 °F 35.6 °F 100% 29.44 in 10.0 mi WNW 8.1 mph - 0.00 in   Overcast
7:15 AM 35.6 °F 28.6 °F 35.6 °F 100% 29.45 in 10.0 mi WNW 9.2 mph - 0.00 in   Overcast
7:35 AM 35.6 °F 28.6 °F 35.6 °F 100% 29.47 in 10.0 mi NW 9.2 mph - 0.00 in   Overcast
7:55 AM 33.8 °F 27.0 °F 33.8 °F 100% 29.48 in 10.0 mi NNW 8.1 mph - 0.00 in   Overcast
8:35 AM 33.8 °F 25.3 °F 33.8 °F 100% 29.50 in 7.0 mi NW 11.5 mph - 0.00 in   Overcast
8:55 AM 33.8 °F 24.8 °F 33.8 °F 100% 29.51 in 3.0 mi NW 12.7 mph - 0.00 in   Overcast
9:15 AM 33.8 °F 24.8 °F 33.8 °F 100% 29.52 in 1.5 mi NNW 12.7 mph - 0.00 in   Overcast
9:35 AM 35.6 °F 28.0 °F 35.6 °F 100% 29.52 in 1.8 mi NNW 10.4 mph - 0.00 in   Overcast
9:55 AM 35.6 °F 27.5 °F 35.6 °F 100% 29.54 in 10.0 mi NNW 11.5 mph - 0.00 in   Overcast
10:15 AM 35.6 °F 28.6 °F 35.6 °F 100% 29.55 in 10.0 mi NNW 9.2 mph - 0.00 in   Overcast
10:35 AM 35.6 °F 26.2 °F 35.6 °F 100% 29.56 in 10.0 mi NNW 15.0 mph - 0.00 in   Overcast
10:55 AM 35.6 °F 26.6 °F 35.6 °F 100% 29.58 in 10.0 mi NNW 13.8 mph - 0.00 in   Overcast
11:15 AM 35.6 °F 26.6 °F 35.6 °F 100% 29.59 in 10.0 mi NW 13.8 mph - 0.00 in   Overcast
11:35 AM 35.6 °F 26.6 °F 35.6 °F 100% 29.60 in 10.0 mi NW 13.8 mph - 0.00 in   Overcast
11:55 AM 35.6 °F 25.5 °F 33.8 °F 93% 29.60 in 10.0 mi NW 17.3 mph - 0.00 in   Overcast
12:15 PM 35.6 °F 25.5 °F 35.6 °F 100% 29.61 in 10.0 mi NW 17.3 mph - 0.00 in   Overcast
12:35 PM 35.6 °F 25.5 °F 33.8 °F 93% 29.61 in 10.0 mi NW 17.3 mph 23.0 mph 0.00 in   Overcast
12:55 PM 35.6 °F 26.2 °F 33.8 °F 93% 29.62 in 10.0 mi WNW 15.0 mph 23.0 mph 0.00 in   Overcast
1:15 PM 35.6 °F 24.5 °F 33.8 °F 93% 29.64 in 10.0 mi NW 20.7 mph 24.2 mph 0.00 in   Overcast
1:35 PM 33.8 °F 22.8 °F 32.0 °F 93% 29.65 in 10.0 mi NW 18.4 mph 24.2 mph 0.00 in   Overcast
1:55 PM 33.8 °F 23.2 °F 32.0 °F 93% 29.66 in 10.0 mi NW 17.3 mph 24.2 mph 0.00 in   Overcast
2:15 PM 33.8 °F 21.9 °F 32.0 °F 93% 29.66 in 10.0 mi NW 21.9 mph - 0.00 in   Overcast
2:35 PM 33.8 °F 23.2 °F 32.0 °F 93% 29.68 in 10.0 mi NW 17.3 mph - 0.00 in   Overcast
2:55 PM 33.8 °F 22.8 °F 32.0 °F 93% 29.70 in 10.0 mi NW 18.4 mph 24.2 mph 0.00 in   Overcast
3:15 PM 33.8 °F 22.2 °F 32.0 °F 93% 29.71 in 10.0 mi NW 20.7 mph 24.2 mph 0.00 in   Overcast
3:35 PM 33.8 °F 23.5 °F 30.2 °F 87% 29.73 in 10.0 mi NW 16.1 mph 24.2 mph 0.00 in   Overcast
3:55 PM 33.8 °F 22.8 °F 30.2 °F 87% 29.74 in 10.0 mi NW 18.4 mph 21.9 mph 0.00 in   Overcast
4:15 PM 33.8 °F 23.2 °F 30.2 °F 87% 29.75 in 10.0 mi NW 17.3 mph 21.9 mph 0.00 in   Overcast
4:35 PM 32.0 °F 20.8 °F 30.2 °F 93% 29.77 in 10.0 mi WNW 17.3 mph - 0.00 in   Overcast
4:55 PM 32.0 °F 21.6 °F 30.2 °F 93% 29.79 in 10.0 mi WNW 15.0 mph 19.6 mph 0.00 in   Overcast
5:15 PM 32.0 °F 20.1 °F 28.4 °F 87% 29.80 in 10.0 mi NW 19.6 mph - 0.00 in   Overcast
5:35 PM 32.0 °F 20.8 °F 28.4 °F 87% 29.81 in 10.0 mi NW 17.3 mph 21.9 mph 0.00 in   Overcast
5:55 PM 32.0 °F 20.8 °F 28.4 °F 87% 29.83 in 10.0 mi NW 17.3 mph - 0.00 in   Overcast
6:15 PM 32.0 °F 20.5 °F 28.4 °F 87% 29.84 in 10.0 mi NW 18.4 mph 24.2 mph 0.00 in   Overcast
6:35 PM 32.0 °F 21.6 °F 28.4 °F 87% 29.84 in 10.0 mi NW 15.0 mph - 0.00 in   Overcast
6:55 PM 32.0 °F 22.5 °F 28.4 °F 87% 29.85 in 10.0 mi NW 12.7 mph 23.0 mph 0.00 in   Overcast
7:15 PM 32.0 °F 21.2 °F 28.4 °F 87% 29.86 in 10.0 mi NW 16.1 mph 21.9 mph 0.00 in   Overcast
7:35 PM 32.0 °F 21.6 °F 28.4 °F 87% 29.86 in 10.0 mi NW 15.0 mph 20.7 mph 0.00 in   Overcast
7:55 PM 32.0 °F 20.8 °F 28.4 °F 87% 29.87 in 10.0 mi NW 17.3 mph 20.7 mph 0.00 in   Overcast
8:15 PM 32.0 °F 20.1 °F 28.4 °F 87% 29.88 in 10.0 mi NW 19.6 mph 24.2 mph 0.00 in   Overcast
8:35 PM 32.0 °F 20.1 °F 28.4 °F 87% 29.89 in 10.0 mi NW 19.6 mph 23.0 mph 0.00 in   Overcast
8:55 PM 32.0 °F 21.6 °F 26.6 °F 80% 29.90 in 10.0 mi NW 15.0 mph 23.0 mph 0.00 in   Overcast
9:15 PM 32.0 °F 20.5 °F 26.6 °F 80% 29.91 in 10.0 mi NW 18.4 mph 21.9 mph 0.00 in   Overcast
9:35 PM 32.0 °F 21.6 °F 26.6 °F 80% 29.93 in 10.0 mi NW 15.0 mph - 0.00 in   Overcast
9:55 PM 32.0 °F 22.5 °F 26.6 °F 80% 29.93 in 10.0 mi NW 12.7 mph 21.9 mph 0.00 in   Overcast
10:15 PM 32.0 °F 23.0 °F 26.6 °F 80% 29.93 in 10.0 mi NW 11.5 mph - 0.00 in   Overcast
10:35 PM 32.0 °F 23.0 °F 26.6 °F 80% 29.93 in 10.0 mi NNW 11.5 mph - 0.00 in   Overcast
10:55 PM 32.0 °F 23.6 °F 26.6 °F 80% 29.94 in 10.0 mi NW 10.4 mph - 0.00 in   Overcast
11:15 PM 32.0 °F 21.6 °F 26.6 °F 80% 29.95 in 10.0 mi WNW 15.0 mph 19.6 mph 0.00 in   Overcast
11:35 PM 30.2 °F 18.5 °F 24.8 °F 80% 29.95 in 10.0 mi NW 17.3 mph 27.6 mph 0.00 in   Overcast
11:55 PM 30.2 °F 19.3 °F 23.0 °F 75% 29.97 in 10.0 mi WNW 15.0 mph 24.2 mph 0.00 in   Overcast